Weather at Shayrat Air Base

Public forecast

Using degrees Celsius for public forecast. Weather courtesy of forecast.io.

Closest aviation weather report (METAR) to Shayrat Air Base

Closest report is Damascus International Airport, 67.7 nm (125.3 km) SSW. Retrieved 2022/06/26 01:00 UTC (41 minutes ago):

OSDI 260100Z 22012KT CAVOK 18/11 Q1009

Closest aviation forecast (TAF) to Shayrat Air Base

Closest forecast is Damascus International Airport, 67.7 nm (125.3 km) SSW. Retrieved 2022-06-26 00:03 UTC (2 hours ago):

TAF TAF OSDI 252200Z 2600/2706 22015KT 9999 FEW030 SCT100